Kalam Weather



Kalam's Current Weather

Temprature 1.24o overcast clouds

overcast clouds

Rain: 0 %

Min Temprature1.24o
Max Temprature1.24o
Humidity68
Wind Speed1.4 m/h
Sun Rise06:17:48
Sun Set17:31:41
Current Time: 18-Oct-2019 16:08:06
Lat/Lon: 35.48, 72.59




Kalam's Geo Location



Kalam's Weather Forecast

Time Overall Temp Min Temp Max Temp Humidity Wind Speed Rain
18-Oct-2019 (Fri)
17:00:00 light snow 0.440 0.440 1.240 68 1.4 m/h 0 %
20:00:00 broken clouds -2.370 -2.370 -1.770 76 2.23 m/h 0 %
23:00:00 broken clouds -2.380 -2.380 -1.982 73 1.5 m/h 0 %
19-Oct-2019 (Sat)
02:00:00 scattered clouds -2.410 -2.410 -2.212 72 1.79 m/h 0 %
05:00:00 scattered clouds -2.417 -2.417 -2.417 71 2.05 m/h 0 %
08:00:00 few clouds 1.241 1.241 1.241 56 1.25 m/h 0 %
11:00:00 clear sky 5.340 5.340 5.340 36 2.11 m/h 0 %
14:00:00 light snow 5.766 5.766 5.766 38 2.51 m/h 0 %
17:00:00 light snow 2.152 2.152 2.152 65 1.64 m/h 0 %
20:00:00 light snow -1.742 -1.742 -1.742 82 1.06 m/h 0 %
23:00:00 scattered clouds -1.723 -1.723 -1.723 68 2.5 m/h 0 %
20-Oct-2019 (Sun)
02:00:00 clear sky -1.883 -1.883 -1.883 58 2.21 m/h 0 %
05:00:00 clear sky -2.056 -2.056 -2.056 54 2.54 m/h 0 %
08:00:00 clear sky 1.842 1.842 1.842 43 1.82 m/h 0 %
11:00:00 clear sky 6.560 6.560 6.560 35 1.22 m/h 0 %
14:00:00 light snow 6.262 6.262 6.262 38 2.14 m/h 0 %
17:00:00 snow 1.438 1.438 1.438 77 2.48 m/h 0 %
20:00:00 light snow -1.068 -1.068 -1.068 78 1.14 m/h 0 %
23:00:00 overcast clouds -1.053 -1.053 -1.053 78 1.07 m/h 0 %
21-Oct-2019 (Mon)
02:00:00 overcast clouds -1.490 -1.490 -1.490 72 1.02 m/h 0 %
05:00:00 overcast clouds -2.099 -2.099 -2.099 70 1.48 m/h 0 %
08:00:00 clear sky 1.369 1.369 1.369 56 0.74 m/h 0 %
11:00:00 clear sky 4.927 4.927 4.927 40 2.27 m/h 0 %
14:00:00 light snow 5.505 5.505 5.505 43 2.53 m/h 0 %
17:00:00 light snow 2.464 2.464 2.464 61 2.33 m/h 0 %
20:00:00 light snow -2.146 -2.146 -2.146 82 0.09 m/h 0 %
23:00:00 scattered clouds -2.110 -2.110 -2.110 80 1.07 m/h 0 %
22-Oct-2019 (Tue)
02:00:00 clear sky -2.314 -2.314 -2.314 80 0.91 m/h 0 %
05:00:00 clear sky -2.551 -2.551 -2.551 79 1.23 m/h 0 %
08:00:00 overcast clouds 0.872 0.872 0.872 59 1.28 m/h 0 %
11:00:00 overcast clouds 4.749 4.749 4.749 44 2.42 m/h 0 %
14:00:00 light snow 5.359 5.359 5.359 44 3.74 m/h 0 %
17:00:00 light snow 2.002 2.002 2.002 66 2.38 m/h 0 %
20:00:00 light snow 0.150 0.150 0.150 72 1.69 m/h 0 %
23:00:00 light snow -1.441 -1.441 -1.441 79 0.74 m/h 0 %
23-Oct-2019 (Wed)
02:00:00 light snow -2.404 -2.404 -2.404 86 0.47 m/h 0 %
05:00:00 light snow -2.703 -2.703 -2.703 88 0.82 m/h 0 %
08:00:00 light snow -1.341 -1.341 -1.341 83 1.02 m/h 0 %
11:00:00 snow 1.745 1.745 1.745 69 3.12 m/h 0 %
14:00:00 snow 1.209 1.209 1.209 79 2.12 m/h 0 %

Famous Cities (61)